UACC/TSE METAR and TAF weather

Enter ICAO airport designator
Station Type Date Time Source
UACC METAR 2019/12/08 07:00 UTC NOAA

UACC 080700Z 25008MPS 9999 OVC006 M02/M04 Q1025 R22/3///40 NOSIG RMK QBB200 QFE737/0983


Station Type Date Time Source
UACC Decoded METAR 2019/12/08 07:00 UTC NOAA

Astana, Kazakhstan (UACC) 51-12N 071-27E
Dec 08, 2019 - 02:00 AM EST / 2019.12.08 0700 UTC
Wind: from the WSW (250 degrees) at 18 MPH (16 KT):0
Visibility: greater than 7 mile(s):0
Sky conditions: overcast
Temperature: 28 F (-2 C)
Windchill: 15 F (-9 C):1
Dew Point: 24 F (-4 C)
Relative Humidity: 86%
Pressure (altimeter): 30.27 in. Hg (1025 hPa)
ob: UACC 080700Z 25008MPS 9999 OVC006 M02/M04 Q1025 R22/3///40 NOSIG RMK QBB200 QFE737/0983
cycle: 7

Station Type Date Time Source
UACC TAF 2019/12/08 06:21 UTC NOAA

TAF UACC 080500Z 0806/0906 24006MPS 9999 BKN011 OVC020 TXM01/0809Z TNM04/0901Z
TEMPO 0806/0813 25010MPS 5000 -SN DRSN BKN005
FM081400 24004MPS 3100 BR BKN003
TEMPO 0816/0904 0200 FZFG VV002

Example: see airport list